sensor_id;sensor_type;location;lat;lon;timestamp;P1;durP1;ratioP1;P2;durP2;ratioP2
18857;SDS011;9558;50.178;8.370;2023-04-24T00:01:32;1.58;;;0.63;;
18857;SDS011;9558;50.178;8.370;2023-04-24T00:04:20;3.67;;;0.68;;
18857;SDS011;9558;50.178;8.370;2023-04-24T00:07:11;2.35;;;0.47;;
18857;SDS011;9558;50.178;8.370;2023-04-24T00:09:58;1.98;;;0.98;;
18857;SDS011;9558;50.178;8.370;2023-04-24T00:12:45;3.45;;;0.40;;
18857;SDS011;9558;50.178;8.370;2023-04-24T00:15:32;0.45;;;0.45;;
18857;SDS011;9558;50.178;8.370;2023-04-24T00:18:18;2.65;;;0.52;;
18857;SDS011;9558;50.178;8.370;2023-04-24T00:21:06;0.65;;;0.50;;
18857;SDS011;9558;50.178;8.370;2023-04-24T00:23:53;0.57;;;0.47;;
18857;SDS011;9558;50.178;8.370;2023-04-24T00:26:40;0.73;;;0.60;;
18857;SDS011;9558;50.178;8.370;2023-04-24T00:29:27;0.77;;;0.57;;
18857;SDS011;9558;50.178;8.370;2023-04-24T00:32:14;0.60;;;0.60;;
18857;SDS011;9558;50.178;8.370;2023-04-24T00:35:01;0.70;;;0.57;;
18857;SDS011;9558;50.178;8.370;2023-04-24T00:37:49;0.70;;;0.57;;
18857;SDS011;9558;50.178;8.370;2023-04-24T00:40:36;1.65;;;0.70;;
18857;SDS011;9558;50.178;8.370;2023-04-24T00:43:23;2.53;;;0.73;;
18857;SDS011;9558;50.178;8.370;2023-04-24T00:46:10;2.20;;;1.05;;
18857;SDS011;9558;50.178;8.370;2023-04-24T00:48:57;0.68;;;0.52;;
18857;SDS011;9558;50.178;8.370;2023-04-24T00:51:45;0.73;;;0.40;;
18857;SDS011;9558;50.178;8.370;2023-04-24T00:54:33;0.50;;;0.50;;
18857;SDS011;9558;50.178;8.370;2023-04-24T00:57:20;0.52;;;0.45;;
18857;SDS011;9558;50.178;8.370;2023-04-24T01:00:09;0.93;;;0.40;;
18857;SDS011;9558;50.178;8.370;2023-04-24T01:02:57;2.30;;;0.55;;
18857;SDS011;9558;50.178;8.370;2023-04-24T01:05:45;0.38;;;0.32;;
18857;SDS011;9558;50.178;8.370;2023-04-24T01:08:32;0.43;;;0.40;;
18857;SDS011;9558;50.178;8.370;2023-04-24T01:11:22;3.17;;;0.22;;
18857;SDS011;9558;50.178;8.370;2023-04-24T01:14:09;0.30;;;0.30;;
18857;SDS011;9558;50.178;8.370;2023-04-24T01:16:56;1.58;;;0.38;;
18857;SDS011;9558;50.178;8.370;2023-04-24T01:19:44;1.58;;;0.70;;
18857;SDS011;9558;50.178;8.370;2023-04-24T01:22:32;0.30;;;0.30;;
18857;SDS011;9558;50.178;8.370;2023-04-24T01:25:19;2.20;;;0.63;;
18857;SDS011;9558;50.178;8.370;2023-04-24T01:28:06;1.55;;;0.40;;
18857;SDS011;9558;50.178;8.370;2023-04-24T01:30:53;0.35;;;0.35;;
18857;SDS011;9558;50.178;8.370;2023-04-24T01:33:40;2.90;;;0.50;;
18857;SDS011;9558;50.178;8.370;2023-04-24T01:36:28;1.02;;;0.50;;
18857;SDS011;9558;50.178;8.370;2023-04-24T01:39:18;0.47;;;0.32;;
18857;SDS011;9558;50.178;8.370;2023-04-24T01:42:05;0.38;;;0.38;;
18857;SDS011;9558;50.178;8.370;2023-04-24T01:44:53;0.15;;;0.15;;
18857;SDS011;9558;50.178;8.370;2023-04-24T01:47:40;0.98;;;0.45;;
18857;SDS011;9558;50.178;8.370;2023-04-24T01:50:28;2.80;;;0.57;;
18857;SDS011;9558;50.178;8.370;2023-04-24T01:53:15;1.75;;;0.40;;
18857;SDS011;9558;50.178;8.370;2023-04-24T01:56:04;0.50;;;0.30;;
18857;SDS011;9558;50.178;8.370;2023-04-24T01:58:51;0.57;;;0.57;;
18857;SDS011;9558;50.178;8.370;2023-04-24T02:01:40;0.60;;;0.50;;
18857;SDS011;9558;50.178;8.370;2023-04-24T02:04:26;3.13;;;0.82;;
18857;SDS011;9558;50.178;8.370;2023-04-24T02:07:13;2.13;;;0.77;;
18857;SDS011;9558;50.178;8.370;2023-04-24T02:10:00;1.75;;;0.68;;
18857;SDS011;9558;50.178;8.370;2023-04-24T02:12:48;0.90;;;0.68;;
18857;SDS011;9558;50.178;8.370;2023-04-24T02:15:35;1.45;;;0.77;;
18857;SDS011;9558;50.178;8.370;2023-04-24T02:18:22;0.35;;;0.32;;
18857;SDS011;9558;50.178;8.370;2023-04-24T02:21:08;5.97;;;0.70;;
18857;SDS011;9558;50.178;8.370;2023-04-24T02:23:56;1.67;;;0.90;;
18857;SDS011;9558;50.178;8.370;2023-04-24T02:26:43;3.30;;;0.95;;
18857;SDS011;9558;50.178;8.370;2023-04-24T02:29:32;0.70;;;0.65;;
18857;SDS011;9558;50.178;8.370;2023-04-24T02:32:21;1.98;;;0.50;;
18857;SDS011;9558;50.178;8.370;2023-04-24T02:35:08;1.98;;;0.80;;
18857;SDS011;9558;50.178;8.370;2023-04-24T02:37:55;3.28;;;0.93;;
18857;SDS011;9558;50.178;8.370;2023-04-24T02:40:42;0.82;;;0.57;;
18857;SDS011;9558;50.178;8.370;2023-04-24T02:43:28;2.28;;;0.60;;
18857;SDS011;9558;50.178;8.370;2023-04-24T02:46:16;0.73;;;0.55;;
18857;SDS011;9558;50.178;8.370;2023-04-24T02:49:03;1.33;;;0.80;;
18857;SDS011;9558;50.178;8.370;2023-04-24T02:51:50;0.90;;;0.73;;
18857;SDS011;9558;50.178;8.370;2023-04-24T02:54:37;0.38;;;0.38;;
18857;SDS011;9558;50.178;8.370;2023-04-24T02:57:23;0.50;;;0.50;;
18857;SDS011;9558;50.178;8.370;2023-04-24T03:00:10;0.73;;;0.63;;
18857;SDS011;9558;50.178;8.370;2023-04-24T03:03:00;0.40;;;0.40;;
18857;SDS011;9558;50.178;8.370;2023-04-24T03:05:46;0.50;;;0.50;;
18857;SDS011;9558;50.178;8.370;2023-04-24T03:08:33;1.17;;;0.40;;
18857;SDS011;9558;50.178;8.370;2023-04-24T03:11:20;0.82;;;0.50;;
18857;SDS011;9558;50.178;8.370;2023-04-24T03:14:07;0.50;;;0.40;;
18857;SDS011;9558;50.178;8.370;2023-04-24T03:16:54;0.75;;;0.52;;
18857;SDS011;9558;50.178;8.370;2023-04-24T03:19:42;0.60;;;0.40;;
18857;SDS011;9558;50.178;8.370;2023-04-24T03:22:28;0.60;;;0.60;;
18857;SDS011;9558;50.178;8.370;2023-04-24T03:25:17;0.38;;;0.38;;
18857;SDS011;9558;50.178;8.370;2023-04-24T03:28:04;0.50;;;0.50;;
18857;SDS011;9558;50.178;8.370;2023-04-24T03:30:51;0.57;;;0.50;;
18857;SDS011;9558;50.178;8.370;2023-04-24T03:33:38;0.40;;;0.40;;
18857;SDS011;9558;50.178;8.370;2023-04-24T03:36:26;2.08;;;0.40;;
18857;SDS011;9558;50.178;8.370;2023-04-24T03:39:13;0.60;;;0.60;;
18857;SDS011;9558;50.178;8.370;2023-04-24T03:42:00;1.08;;;0.60;;
18857;SDS011;9558;50.178;8.370;2023-04-24T03:44:47;0.52;;;0.52;;
18857;SDS011;9558;50.178;8.370;2023-04-24T03:47:34;0.47;;;0.30;;
18857;SDS011;9558;50.178;8.370;2023-04-24T03:50:20;0.43;;;0.40;;
18857;SDS011;9558;50.178;8.370;2023-04-24T03:53:08;1.35;;;0.70;;
18857;SDS011;9558;50.178;8.370;2023-04-24T03:55:55;3.42;;;0.60;;
18857;SDS011;9558;50.178;8.370;2023-04-24T03:58:42;0.85;;;0.52;;
18857;SDS011;9558;50.178;8.370;2023-04-24T04:01:29;0.77;;;0.52;;
18857;SDS011;9558;50.178;8.370;2023-04-24T04:04:16;0.82;;;0.80;;
18857;SDS011;9558;50.178;8.370;2023-04-24T04:07:02;3.03;;;0.57;;
18857;SDS011;9558;50.178;8.370;2023-04-24T04:09:51;0.45;;;0.45;;
18857;SDS011;9558;50.178;8.370;2023-04-24T04:12:38;0.98;;;0.55;;
18857;SDS011;9558;50.178;8.370;2023-04-24T04:15:25;0.65;;;0.40;;
18857;SDS011;9558;50.178;8.370;2023-04-24T04:18:12;0.65;;;0.50;;
18857;SDS011;9558;50.178;8.370;2023-04-24T04:20:58;0.45;;;0.40;;
18857;SDS011;9558;50.178;8.370;2023-04-24T04:23:46;0.40;;;0.40;;
18857;SDS011;9558;50.178;8.370;2023-04-24T04:26:34;1.42;;;0.75;;
18857;SDS011;9558;50.178;8.370;2023-04-24T04:29:24;0.73;;;0.70;;
18857;SDS011;9558;50.178;8.370;2023-04-24T04:32:11;0.98;;;0.68;;
18857;SDS011;9558;50.178;8.370;2023-04-24T04:34:58;0.85;;;0.70;;
18857;SDS011;9558;50.178;8.370;2023-04-24T04:37:48;0.57;;;0.38;;
18857;SDS011;9558;50.178;8.370;2023-04-24T04:40:35;0.60;;;0.60;;
18857;SDS011;9558;50.178;8.370;2023-04-24T04:43:23;0.40;;;0.40;;
18857;SDS011;9558;50.178;8.370;2023-04-24T04:46:09;0.73;;;0.50;;
18857;SDS011;9558;50.178;8.370;2023-04-24T04:48:56;0.85;;;0.60;;
18857;SDS011;9558;50.178;8.370;2023-04-24T04:51:43;1.48;;;0.57;;
18857;SDS011;9558;50.178;8.370;2023-04-24T04:54:30;0.63;;;0.50;;
18857;SDS011;9558;50.178;8.370;2023-04-24T04:57:17;1.13;;;0.82;;
18857;SDS011;9558;50.178;8.370;2023-04-24T05:00:06;0.52;;;0.47;;
18857;SDS011;9558;50.178;8.370;2023-04-24T05:02:55;4.10;;;0.70;;
18857;SDS011;9558;50.178;8.370;2023-04-24T05:05:42;0.68;;;0.60;;
18857;SDS011;9558;50.178;8.370;2023-04-24T05:08:29;0.30;;;0.30;;
18857;SDS011;9558;50.178;8.370;2023-04-24T05:11:15;0.90;;;0.55;;
18857;SDS011;9558;50.178;8.370;2023-04-24T05:14:02;0.82;;;0.73;;
18857;SDS011;9558;50.178;8.370;2023-04-24T05:16:50;0.45;;;0.45;;
18857;SDS011;9558;50.178;8.370;2023-04-24T05:19:37;1.65;;;0.60;;
18857;SDS011;9558;50.178;8.370;2023-04-24T05:22:24;0.73;;;0.73;;
18857;SDS011;9558;50.178;8.370;2023-04-24T05:25:11;1.23;;;0.68;;
18857;SDS011;9558;50.178;8.370;2023-04-24T05:27:58;1.08;;;0.75;;
18857;SDS011;9558;50.178;8.370;2023-04-24T05:30:45;0.60;;;0.57;;
18857;SDS011;9558;50.178;8.370;2023-04-24T05:33:33;0.80;;;0.70;;
18857;SDS011;9558;50.178;8.370;2023-04-24T05:36:20;0.52;;;0.52;;
18857;SDS011;9558;50.178;8.370;2023-04-24T05:39:06;1.65;;;1.13;;
18857;SDS011;9558;50.178;8.370;2023-04-24T05:41:53;0.65;;;0.65;;
18857;SDS011;9558;50.178;8.370;2023-04-24T05:44:43;4.93;;;0.90;;
18857;SDS011;9558;50.178;8.370;2023-04-24T05:47:29;1.00;;;0.80;;
18857;SDS011;9558;50.178;8.370;2023-04-24T05:50:18;1.17;;;0.80;;
18857;SDS011;9558;50.178;8.370;2023-04-24T05:53:05;0.95;;;0.82;;
18857;SDS011;9558;50.178;8.370;2023-04-24T05:55:52;0.88;;;0.50;;
18857;SDS011;9558;50.178;8.370;2023-04-24T05:58:39;0.80;;;0.80;;
18857;SDS011;9558;50.178;8.370;2023-04-24T06:01:26;6.22;;;0.70;;
18857;SDS011;9558;50.178;8.370;2023-04-24T06:04:12;1.85;;;0.68;;
18857;SDS011;9558;50.178;8.370;2023-04-24T06:07:01;2.08;;;0.63;;
18857;SDS011;9558;50.178;8.370;2023-04-24T06:09:48;0.70;;;0.60;;
18857;SDS011;9558;50.178;8.370;2023-04-24T06:12:34;3.72;;;2.13;;
18857;SDS011;9558;50.178;8.370;2023-04-24T06:15:21;3.15;;;1.20;;
18857;SDS011;9558;50.178;8.370;2023-04-24T06:18:08;1.48;;;1.23;;
18857;SDS011;9558;50.178;8.370;2023-04-24T06:20:55;5.53;;;1.63;;
18857;SDS011;9558;50.178;8.370;2023-04-24T06:23:43;1.52;;;1.10;;
18857;SDS011;9558;50.178;8.370;2023-04-24T06:26:31;3.03;;;1.30;;
18857;SDS011;9558;50.178;8.370;2023-04-24T06:29:18;2.75;;;1.50;;
18857;SDS011;9558;50.178;8.370;2023-04-24T06:32:05;5.50;;;1.80;;
18857;SDS011;9558;50.178;8.370;2023-04-24T06:34:52;2.92;;;1.35;;
18857;SDS011;9558;50.178;8.370;2023-04-24T06:37:38;4.97;;;1.40;;
18857;SDS011;9558;50.178;8.370;2023-04-24T06:40:27;2.33;;;1.58;;
18857;SDS011;9558;50.178;8.370;2023-04-24T06:43:13;1.95;;;1.75;;
18857;SDS011;9558;50.178;8.370;2023-04-24T06:46:00;1.88;;;1.60;;
18857;SDS011;9558;50.178;8.370;2023-04-24T06:48:48;7.00;;;1.95;;
18857;SDS011;9558;50.178;8.370;2023-04-24T06:51:35;2.17;;;1.50;;
18857;SDS011;9558;50.178;8.370;2023-04-24T06:54:22;1.67;;;1.30;;
18857;SDS011;9558;50.178;8.370;2023-04-24T06:57:10;1.77;;;1.40;;
18857;SDS011;9558;50.178;8.370;2023-04-24T06:59:57;2.60;;;1.25;;
18857;SDS011;9558;50.178;8.370;2023-04-24T07:02:44;1.42;;;1.27;;
18857;SDS011;9558;50.178;8.370;2023-04-24T07:05:30;1.17;;;1.02;;
18857;SDS011;9558;50.178;8.370;2023-04-24T07:08:19;1.80;;;1.38;;
18857;SDS011;9558;50.178;8.370;2023-04-24T07:11:07;1.95;;;1.08;;
18857;SDS011;9558;50.178;8.370;2023-04-24T07:13:55;3.05;;;1.42;;
18857;SDS011;9558;50.178;8.370;2023-04-24T07:16:42;1.20;;;1.10;;
18857;SDS011;9558;50.178;8.370;2023-04-24T07:19:29;1.00;;;0.90;;
18857;SDS011;9558;50.178;8.370;2023-04-24T07:22:15;2.35;;;1.30;;
18857;SDS011;9558;50.178;8.370;2023-04-24T07:25:03;1.15;;;1.00;;
18857;SDS011;9558;50.178;8.370;2023-04-24T07:27:50;2.20;;;1.52;;
18857;SDS011;9558;50.178;8.370;2023-04-24T07:30:38;2.72;;;1.00;;
18857;SDS011;9558;50.178;8.370;2023-04-24T07:33:25;3.45;;;1.30;;
18857;SDS011;9558;50.178;8.370;2023-04-24T07:36:12;1.65;;;0.90;;
18857;SDS011;9558;50.178;8.370;2023-04-24T07:39:02;2.67;;;1.30;;
18857;SDS011;9558;50.178;8.370;2023-04-24T07:41:49;1.00;;;0.90;;
18857;SDS011;9558;50.178;8.370;2023-04-24T07:44:36;2.88;;;1.05;;
18857;SDS011;9558;50.178;8.370;2023-04-24T07:47:24;1.38;;;0.85;;
18857;SDS011;9558;50.178;8.370;2023-04-24T07:50:10;1.08;;;0.80;;
18857;SDS011;9558;50.178;8.370;2023-04-24T07:52:58;2.58;;;1.00;;
18857;SDS011;9558;50.178;8.370;2023-04-24T07:55:45;1.10;;;0.80;;
18857;SDS011;9558;50.178;8.370;2023-04-24T07:58:32;3.88;;;1.23;;
18857;SDS011;9558;50.178;8.370;2023-04-24T08:01:19;4.68;;;0.82;;
18857;SDS011;9558;50.178;8.370;2023-04-24T08:04:07;1.55;;;1.15;;
18857;SDS011;9558;50.178;8.370;2023-04-24T08:06:54;1.55;;;1.10;;
18857;SDS011;9558;50.178;8.370;2023-04-24T08:09:41;1.75;;;0.98;;
18857;SDS011;9558;50.178;8.370;2023-04-24T08:12:27;1.35;;;0.82;;
18857;SDS011;9558;50.178;8.370;2023-04-24T08:15:14;1.20;;;1.08;;
18857;SDS011;9558;50.178;8.370;2023-04-24T08:18:01;1.88;;;0.93;;
18857;SDS011;9558;50.178;8.370;2023-04-24T08:20:49;2.33;;;0.80;;
18857;SDS011;9558;50.178;8.370;2023-04-24T08:23:36;1.50;;;1.17;;
18857;SDS011;9558;50.178;8.370;2023-04-24T08:26:24;1.40;;;1.00;;
18857;SDS011;9558;50.178;8.370;2023-04-24T08:29:11;2.15;;;1.00;;
18857;SDS011;9558;50.178;8.370;2023-04-24T08:31:57;1.45;;;1.20;;
18857;SDS011;9558;50.178;8.370;2023-04-24T08:34:44;2.33;;;1.17;;
18857;SDS011;9558;50.178;8.370;2023-04-24T08:37:32;1.30;;;1.00;;
18857;SDS011;9558;50.178;8.370;2023-04-24T08:40:20;1.00;;;0.90;;
18857;SDS011;9558;50.178;8.370;2023-04-24T08:43:13;1.13;;;0.70;;
18857;SDS011;9558;50.178;8.370;2023-04-24T08:46:00;3.65;;;1.10;;
18857;SDS011;9558;50.178;8.370;2023-04-24T08:48:47;1.77;;;0.70;;
18857;SDS011;9558;50.178;8.370;2023-04-24T08:51:34;1.15;;;0.90;;
18857;SDS011;9558;50.178;8.370;2023-04-24T08:54:24;1.35;;;0.80;;
18857;SDS011;9558;50.178;8.370;2023-04-24T08:57:11;1.00;;;0.65;;
18857;SDS011;9558;50.178;8.370;2023-04-24T09:00:00;1.20;;;0.93;;
18857;SDS011;9558;50.178;8.370;2023-04-24T09:02:49;1.88;;;1.27;;
18857;SDS011;9558;50.178;8.370;2023-04-24T09:05:36;2.60;;;0.85;;
18857;SDS011;9558;50.178;8.370;2023-04-24T09:08:23;2.22;;;0.80;;
18857;SDS011;9558;50.178;8.370;2023-04-24T09:11:13;1.70;;;1.00;;
18857;SDS011;9558;50.178;8.370;2023-04-24T09:13:59;1.25;;;0.98;;
18857;SDS011;9558;50.178;8.370;2023-04-24T09:16:47;3.95;;;1.20;;
18857;SDS011;9558;50.178;8.370;2023-04-24T09:19:34;1.48;;;1.00;;
18857;SDS011;9558;50.178;8.370;2023-04-24T09:22:20;1.35;;;0.80;;
18857;SDS011;9558;50.178;8.370;2023-04-24T09:25:08;1.48;;;0.70;;
18857;SDS011;9558;50.178;8.370;2023-04-24T09:28:01;0.93;;;0.60;;
18857;SDS011;9558;50.178;8.370;2023-04-24T09:30:51;1.70;;;0.90;;
18857;SDS011;9558;50.178;8.370;2023-04-24T09:36:41;0.90;;;0.80;;
18857;SDS011;9558;50.178;8.370;2023-04-24T09:39:29;0.77;;;0.70;;
18857;SDS011;9558;50.178;8.370;2023-04-24T09:42:15;0.88;;;0.50;;
18857;SDS011;9558;50.178;8.370;2023-04-24T09:45:04;0.50;;;0.50;;
18857;SDS011;9558;50.178;8.370;2023-04-24T09:47:55;1.48;;;0.80;;
18857;SDS011;9558;50.178;8.370;2023-04-24T09:50:45;0.55;;;0.50;;
18857;SDS011;9558;50.178;8.370;2023-04-24T09:53:32;0.22;;;0.22;;
18857;SDS011;9558;50.178;8.370;2023-04-24T09:56:20;0.50;;;0.28;;
18857;SDS011;9558;50.178;8.370;2023-04-24T09:59:07;0.32;;;0.32;;
18857;SDS011;9558;50.178;8.370;2023-04-24T10:01:55;0.60;;;0.52;;
18857;SDS011;9558;50.178;8.370;2023-04-24T10:04:53;0.82;;;0.70;;
18857;SDS011;9558;50.178;8.370;2023-04-24T10:07:40;0.35;;;0.35;;
18857;SDS011;9558;50.178;8.370;2023-04-24T10:10:27;0.55;;;0.45;;
18857;SDS011;9558;50.178;8.370;2023-04-24T10:13:14;0.40;;;0.40;;
18857;SDS011;9558;50.178;8.370;2023-04-24T10:16:01;0.43;;;0.43;;
18857;SDS011;9558;50.178;8.370;2023-04-24T10:18:51;0.43;;;0.40;;
18857;SDS011;9558;50.178;8.370;2023-04-24T10:21:38;3.03;;;0.50;;
18857;SDS011;9558;50.178;8.370;2023-04-24T10:24:27;5.40;;;0.68;;
18857;SDS011;9558;50.178;8.370;2023-04-24T10:27:14;0.30;;;0.30;;
18857;SDS011;9558;50.178;8.370;2023-04-24T10:30:01;1.27;;;0.38;;
18857;SDS011;9558;50.178;8.370;2023-04-24T10:32:48;0.70;;;0.40;;
18857;SDS011;9558;50.178;8.370;2023-04-24T10:35:37;0.90;;;0.52;;
18857;SDS011;9558;50.178;8.370;2023-04-24T10:38:28;0.20;;;0.20;;
18857;SDS011;9558;50.178;8.370;2023-04-24T10:41:16;0.30;;;0.30;;
18857;SDS011;9558;50.178;8.370;2023-04-24T10:44:08;0.43;;;0.40;;
18857;SDS011;9558;50.178;8.370;2023-04-24T10:46:56;0.70;;;0.45;;
18857;SDS011;9558;50.178;8.370;2023-04-24T10:49:42;0.35;;;0.22;;
18857;SDS011;9558;50.178;8.370;2023-04-24T10:52:44;0.70;;;0.40;;
18857;SDS011;9558;50.178;8.370;2023-04-24T10:55:42;0.52;;;0.52;;
18857;SDS011;9558;50.178;8.370;2023-04-24T10:58:37;0.90;;;0.63;;
18857;SDS011;9558;50.178;8.370;2023-04-24T11:01:26;0.63;;;0.45;;
18857;SDS011;9558;50.178;8.370;2023-04-24T11:04:14;0.20;;;0.20;;
18857;SDS011;9558;50.178;8.370;2023-04-24T11:07:16;0.70;;;0.70;;
18857;SDS011;9558;50.178;8.370;2023-04-24T11:10:04;1.10;;;0.52;;
18857;SDS011;9558;50.178;8.370;2023-04-24T11:12:52;0.52;;;0.50;;
18857;SDS011;9558;50.178;8.370;2023-04-24T11:15:40;0.50;;;0.50;;
18857;SDS011;9558;50.178;8.370;2023-04-24T11:18:30;0.88;;;0.52;;
18857;SDS011;9558;50.178;8.370;2023-04-24T11:21:23;2.55;;;0.70;;
18857;SDS011;9558;50.178;8.370;2023-04-24T11:24:24;0.55;;;0.55;;
18857;SDS011;9558;50.178;8.370;2023-04-24T11:27:14;1.95;;;0.95;;
18857;SDS011;9558;50.178;8.370;2023-04-24T11:30:02;0.63;;;0.57;;
18857;SDS011;9558;50.178;8.370;2023-04-24T11:32:50;0.90;;;0.65;;
18857;SDS011;9558;50.178;8.370;2023-04-24T11:35:39;2.85;;;0.52;;
18857;SDS011;9558;50.178;8.370;2023-04-24T11:38:26;0.70;;;0.60;;
18857;SDS011;9558;50.178;8.370;2023-04-24T11:41:13;1.08;;;0.80;;
18857;SDS011;9558;50.178;8.370;2023-04-24T11:44:02;1.00;;;0.70;;
18857;SDS011;9558;50.178;8.370;2023-04-24T11:46:49;1.27;;;0.82;;
18857;SDS011;9558;50.178;8.370;2023-04-24T11:49:36;2.30;;;0.90;;
18857;SDS011;9558;50.178;8.370;2023-04-24T11:52:23;1.23;;;0.68;;
18857;SDS011;9558;50.178;8.370;2023-04-24T11:55:22;1.17;;;0.85;;
18857;SDS011;9558;50.178;8.370;2023-04-24T11:58:11;0.75;;;0.68;;
18857;SDS011;9558;50.178;8.370;2023-04-24T12:00:59;1.48;;;0.70;;
18857;SDS011;9558;50.178;8.370;2023-04-24T12:03:50;0.90;;;0.50;;
18857;SDS011;9558;50.178;8.370;2023-04-24T12:06:37;1.20;;;0.90;;
18857;SDS011;9558;50.178;8.370;2023-04-24T12:09:24;1.70;;;1.10;;
18857;SDS011;9558;50.178;8.370;2023-04-24T12:12:11;2.42;;;0.85;;
18857;SDS011;9558;50.178;8.370;2023-04-24T12:14:59;1.30;;;1.08;;
18857;SDS011;9558;50.178;8.370;2023-04-24T12:17:47;1.33;;;0.75;;
18857;SDS011;9558;50.178;8.370;2023-04-24T12:20:36;1.33;;;1.00;;
18857;SDS011;9558;50.178;8.370;2023-04-24T12:23:35;1.20;;;0.80;;
18857;SDS011;9558;50.178;8.370;2023-04-24T12:26:22;2.72;;;1.00;;
18857;SDS011;9558;50.178;8.370;2023-04-24T12:29:09;1.75;;;1.08;;
18857;SDS011;9558;50.178;8.370;2023-04-24T12:31:57;3.15;;;1.38;;
18857;SDS011;9558;50.178;8.370;2023-04-24T12:34:45;2.40;;;1.40;;
18857;SDS011;9558;50.178;8.370;2023-04-24T12:37:32;1.40;;;0.77;;
18857;SDS011;9558;50.178;8.370;2023-04-24T12:40:21;2.88;;;1.55;;
18857;SDS011;9558;50.178;8.370;2023-04-24T12:43:14;3.03;;;1.33;;
18857;SDS011;9558;50.178;8.370;2023-04-24T12:46:02;2.85;;;1.00;;
18857;SDS011;9558;50.178;8.370;2023-04-24T12:48:50;1.95;;;1.00;;
18857;SDS011;9558;50.178;8.370;2023-04-24T12:51:38;1.63;;;1.08;;
18857;SDS011;9558;50.178;8.370;2023-04-24T12:54:25;2.38;;;1.10;;
18857;SDS011;9558;50.178;8.370;2023-04-24T12:57:12;1.85;;;1.05;;
18857;SDS011;9558;50.178;8.370;2023-04-24T12:59:59;6.35;;;1.25;;
18857;SDS011;9558;50.178;8.370;2023-04-24T13:02:46;3.75;;;1.27;;
18857;SDS011;9558;50.178;8.370;2023-04-24T13:05:33;3.45;;;1.33;;
18857;SDS011;9558;50.178;8.370;2023-04-24T13:08:21;2.60;;;1.60;;
18857;SDS011;9558;50.178;8.370;2023-04-24T13:11:08;1.40;;;1.13;;
18857;SDS011;9558;50.178;8.370;2023-04-24T13:13:55;2.15;;;1.30;;
18857;SDS011;9558;50.178;8.370;2023-04-24T13:16:41;2.03;;;1.48;;
18857;SDS011;9558;50.178;8.370;2023-04-24T13:19:28;2.33;;;1.20;;
18857;SDS011;9558;50.178;8.370;2023-04-24T13:22:16;2.15;;;1.23;;
18857;SDS011;9558;50.178;8.370;2023-04-24T13:25:05;2.63;;;1.20;;
18857;SDS011;9558;50.178;8.370;2023-04-24T13:27:53;3.42;;;1.70;;
18857;SDS011;9558;50.178;8.370;2023-04-24T13:30:40;2.15;;;1.48;;
18857;SDS011;9558;50.178;8.370;2023-04-24T13:33:27;4.13;;;2.20;;
18857;SDS011;9558;50.178;8.370;2023-04-24T13:36:14;11.27;;;2.13;;
18857;SDS011;9558;50.178;8.370;2023-04-24T13:39:02;3.35;;;1.27;;
18857;SDS011;9558;50.178;8.370;2023-04-24T13:41:50;2.40;;;1.20;;
18857;SDS011;9558;50.178;8.370;2023-04-24T13:44:37;4.90;;;1.95;;
18857;SDS011;9558;50.178;8.370;2023-04-24T13:47:24;3.40;;;1.70;;
18857;SDS011;9558;50.178;8.370;2023-04-24T13:50:11;5.70;;;1.48;;
18857;SDS011;9558;50.178;8.370;2023-04-24T13:52:58;4.82;;;1.60;;
18857;SDS011;9558;50.178;8.370;2023-04-24T13:55:46;5.00;;;1.40;;
18857;SDS011;9558;50.178;8.370;2023-04-24T13:58:34;2.65;;;1.38;;
18857;SDS011;9558;50.178;8.370;2023-04-24T14:01:22;2.35;;;1.30;;
18857;SDS011;9558;50.178;8.370;2023-04-24T14:04:10;3.70;;;1.58;;
18857;SDS011;9558;50.178;8.370;2023-04-24T14:06:57;2.05;;;1.35;;
18857;SDS011;9558;50.178;8.370;2023-04-24T14:09:44;2.13;;;1.50;;
18857;SDS011;9558;50.178;8.370;2023-04-24T14:12:30;3.65;;;1.30;;
18857;SDS011;9558;50.178;8.370;2023-04-24T14:15:19;1.85;;;1.35;;
18857;SDS011;9558;50.178;8.370;2023-04-24T14:18:06;2.78;;;1.27;;
18857;SDS011;9558;50.178;8.370;2023-04-24T14:20:52;2.90;;;1.60;;
18857;SDS011;9558;50.178;8.370;2023-04-24T14:23:39;2.55;;;1.10;;
18857;SDS011;9558;50.178;8.370;2023-04-24T14:26:26;1.95;;;1.25;;
18857;SDS011;9558;50.178;8.370;2023-04-24T14:29:15;1.92;;;1.20;;
18857;SDS011;9558;50.178;8.370;2023-04-24T14:32:04;2.85;;;1.20;;
18857;SDS011;9558;50.178;8.370;2023-04-24T14:34:50;4.03;;;1.40;;
18857;SDS011;9558;50.178;8.370;2023-04-24T14:37:37;5.50;;;1.17;;
18857;SDS011;9558;50.178;8.370;2023-04-24T14:40:26;2.33;;;1.25;;
18857;SDS011;9558;50.178;8.370;2023-04-24T14:43:13;3.40;;;1.20;;
18857;SDS011;9558;50.178;8.370;2023-04-24T14:46:00;1.63;;;1.17;;
18857;SDS011;9558;50.178;8.370;2023-04-24T14:48:48;3.05;;;1.30;;
18857;SDS011;9558;50.178;8.370;2023-04-24T14:51:35;1.50;;;1.10;;
18857;SDS011;9558;50.178;8.370;2023-04-24T14:54:22;4.25;;;1.35;;
18857;SDS011;9558;50.178;8.370;2023-04-24T14:57:09;2.40;;;1.08;;
18857;SDS011;9558;50.178;8.370;2023-04-24T14:59:56;3.97;;;1.35;;
18857;SDS011;9558;50.178;8.370;2023-04-24T15:02:43;2.03;;;1.10;;
18857;SDS011;9558;50.178;8.370;2023-04-24T15:05:31;3.20;;;2.10;;
18857;SDS011;9558;50.178;8.370;2023-04-24T15:08:17;3.45;;;1.30;;
18857;SDS011;9558;50.178;8.370;2023-04-24T15:11:04;2.67;;;1.20;;
18857;SDS011;9558;50.178;8.370;2023-04-24T15:13:51;1.45;;;1.25;;
18857;SDS011;9558;50.178;8.370;2023-04-24T15:16:38;2.83;;;1.20;;
18857;SDS011;9558;50.178;8.370;2023-04-24T15:19:25;1.88;;;1.15;;
18857;SDS011;9558;50.178;8.370;2023-04-24T15:22:13;2.97;;;1.15;;
18857;SDS011;9558;50.178;8.370;2023-04-24T15:24:59;2.05;;;1.67;;
18857;SDS011;9558;50.178;8.370;2023-04-24T15:27:47;1.75;;;0.93;;
18857;SDS011;9558;50.178;8.370;2023-04-24T15:30:34;4.32;;;1.30;;
18857;SDS011;9558;50.178;8.370;2023-04-24T15:33:21;1.90;;;1.15;;
18857;SDS011;9558;50.178;8.370;2023-04-24T15:36:08;1.70;;;1.13;;
18857;SDS011;9558;50.178;8.370;2023-04-24T15:38:56;3.58;;;1.30;;
18857;SDS011;9558;50.178;8.370;2023-04-24T15:41:43;3.88;;;1.27;;
18857;SDS011;9558;50.178;8.370;2023-04-24T15:44:30;4.75;;;1.27;;
18857;SDS011;9558;50.178;8.370;2023-04-24T15:47:16;3.00;;;1.40;;
18857;SDS011;9558;50.178;8.370;2023-04-24T15:50:04;4.25;;;1.35;;
18857;SDS011;9558;50.178;8.370;2023-04-24T15:52:53;3.60;;;1.30;;
18857;SDS011;9558;50.178;8.370;2023-04-24T15:55:41;3.45;;;1.50;;
18857;SDS011;9558;50.178;8.370;2023-04-24T15:58:28;4.28;;;1.38;;
18857;SDS011;9558;50.178;8.370;2023-04-24T16:01:15;2.42;;;1.40;;
18857;SDS011;9558;50.178;8.370;2023-04-24T16:04:02;1.73;;;0.98;;
18857;SDS011;9558;50.178;8.370;2023-04-24T16:06:51;1.25;;;1.08;;
18857;SDS011;9558;50.178;8.370;2023-04-24T16:09:38;3.72;;;1.10;;
18857;SDS011;9558;50.178;8.370;2023-04-24T16:12:26;4.20;;;1.33;;
18857;SDS011;9558;50.178;8.370;2023-04-24T16:15:13;1.75;;;1.23;;
18857;SDS011;9558;50.178;8.370;2023-04-24T16:18:00;3.90;;;1.42;;
18857;SDS011;9558;50.178;8.370;2023-04-24T16:20:46;1.83;;;1.20;;
18857;SDS011;9558;50.178;8.370;2023-04-24T16:23:33;3.40;;;1.08;;
18857;SDS011;9558;50.178;8.370;2023-04-24T16:26:20;3.45;;;1.42;;
18857;SDS011;9558;50.178;8.370;2023-04-24T16:29:08;1.77;;;1.13;;
18857;SDS011;9558;50.178;8.370;2023-04-24T16:31:55;5.20;;;1.45;;
18857;SDS011;9558;50.178;8.370;2023-04-24T16:34:42;2.33;;;1.25;;
18857;SDS011;9558;50.178;8.370;2023-04-24T16:37:29;3.97;;;1.60;;
18857;SDS011;9558;50.178;8.370;2023-04-24T16:40:15;3.15;;;1.30;;
18857;SDS011;9558;50.178;8.370;2023-04-24T16:43:02;2.67;;;1.48;;
18857;SDS011;9558;50.178;8.370;2023-04-24T16:45:50;2.25;;;1.30;;
18857;SDS011;9558;50.178;8.370;2023-04-24T16:48:37;3.53;;;1.13;;
18857;SDS011;9558;50.178;8.370;2023-04-24T16:51:24;3.80;;;1.70;;
18857;SDS011;9558;50.178;8.370;2023-04-24T16:54:12;4.60;;;1.65;;
18857;SDS011;9558;50.178;8.370;2023-04-24T16:56:58;4.72;;;1.70;;
18857;SDS011;9558;50.178;8.370;2023-04-24T16:59:45;2.85;;;1.45;;
18857;SDS011;9558;50.178;8.370;2023-04-24T17:02:33;3.05;;;1.40;;
18857;SDS011;9558;50.178;8.370;2023-04-24T17:05:20;2.90;;;1.48;;
18857;SDS011;9558;50.178;8.370;2023-04-24T17:08:07;2.45;;;1.48;;